createdAt,value
2018-11-10T00:00:03.479Z,4.67
2018-11-10T00:02:31.770Z,4.93
2018-11-10T00:05:00.088Z,4.20
2018-11-10T00:07:28.372Z,4.73
2018-11-10T00:09:56.665Z,4.10
2018-11-10T00:12:24.936Z,4.27
2018-11-10T00:14:54.031Z,4.30
2018-11-10T00:17:22.350Z,4.70
2018-11-10T00:19:50.686Z,4.50
2018-11-10T00:22:18.972Z,4.47
2018-11-10T00:24:47.285Z,4.37
2018-11-10T00:27:15.585Z,4.00
2018-11-10T00:29:43.953Z,4.00
2018-11-10T00:32:12.260Z,4.30
2018-11-10T00:34:40.622Z,4.10
2018-11-10T00:37:08.866Z,4.37
2018-11-10T00:39:37.168Z,4.27
2018-11-10T00:42:06.196Z,4.00
2018-11-10T00:44:34.555Z,4.13
2018-11-10T00:47:02.842Z,4.20
2018-11-10T00:49:31.152Z,4.17
2018-11-10T00:51:59.439Z,3.73
2018-11-10T00:54:27.725Z,4.20
2018-11-10T00:56:56.046Z,3.70
2018-11-10T00:59:25.338Z,3.70
2018-11-10T01:01:53.641Z,4.10
2018-11-10T01:04:21.926Z,3.87
2018-11-10T01:06:51.389Z,3.80
2018-11-10T01:09:19.687Z,3.63
2018-11-10T01:11:49.005Z,3.40
2018-11-10T01:14:17.294Z,3.60
2018-11-10T01:16:45.596Z,4.00
2018-11-10T01:19:13.890Z,3.57
2018-11-10T01:21:42.163Z,3.60
2018-11-10T01:24:10.484Z,3.77
2018-11-10T01:26:38.774Z,3.40
2018-11-10T01:29:07.456Z,3.50
2018-11-10T01:31:35.754Z,3.83
2018-11-10T01:34:04.104Z,3.37
2018-11-10T01:36:32.404Z,3.77
2018-11-10T01:39:02.104Z,3.47
2018-11-10T01:41:30.729Z,3.47
2018-11-10T01:43:59.029Z,3.33
2018-11-10T01:46:27.320Z,3.40
2018-11-10T01:48:55.612Z,3.37
2018-11-10T01:51:23.892Z,3.87
2018-11-10T01:53:52.210Z,3.43
2018-11-10T01:56:20.516Z,3.17
2018-11-10T01:58:48.845Z,3.50
2018-11-10T02:01:17.132Z,3.77
2018-11-10T02:03:45.422Z,3.10
2018-11-10T02:06:13.714Z,3.10
2018-11-10T02:08:42.026Z,3.20
2018-11-10T02:11:10.342Z,3.40
2018-11-10T02:13:38.630Z,3.03
2018-11-10T02:16:06.962Z,3.20
2018-11-10T02:18:35.264Z,3.57
2018-11-10T02:21:03.562Z,3.13
2018-11-10T02:23:31.854Z,3.30
2018-11-10T02:26:00.171Z,3.23
2018-11-10T02:28:28.468Z,3.30
2018-11-10T02:30:56.826Z,3.40
2018-11-10T02:33:25.130Z,3.20
2018-11-10T02:35:53.422Z,3.37
2018-11-10T02:38:21.747Z,2.93
2018-11-10T02:40:50.036Z,3.10
2018-11-10T02:43:18.332Z,3.00
2018-11-10T02:45:46.638Z,2.90
2018-11-10T02:48:14.912Z,3.10
2018-11-10T02:50:43.214Z,3.17
2018-11-10T02:53:11.504Z,2.97
2018-11-10T02:55:39.806Z,3.00
2018-11-10T02:58:08.102Z,3.00
2018-11-10T03:00:36.394Z,3.00
2018-11-10T03:03:04.664Z,3.07
2018-11-10T03:05:32.982Z,2.77
2018-11-10T03:08:01.282Z,2.90
2018-11-10T03:10:29.588Z,2.70
2018-11-10T03:12:57.864Z,2.83
2018-11-10T03:15:26.162Z,2.77
2018-11-10T03:17:54.478Z,3.17
2018-11-10T03:20:22.814Z,2.90
2018-11-10T03:22:51.130Z,2.80
2018-11-10T03:25:19.426Z,2.93
2018-11-10T03:27:47.738Z,3.20
2018-11-10T03:30:16.012Z,3.13
2018-11-10T03:32:44.290Z,2.87
2018-11-10T03:35:12.598Z,2.67
2018-11-10T03:37:41.390Z,2.60
2018-11-10T03:40:10.715Z,2.47
2018-11-10T03:42:39.808Z,2.90
2018-11-10T03:45:09.224Z,3.00
2018-11-10T03:47:37.506Z,2.53
2018-11-10T03:50:06.360Z,2.73
2018-11-10T03:52:34.628Z,2.50
2018-11-10T03:55:02.915Z,2.87
2018-11-10T03:57:31.238Z,2.63
2018-11-10T03:59:59.532Z,2.60
2018-11-10T04:02:27.912Z,2.90
2018-11-10T04:04:56.214Z,2.47
2018-11-10T04:07:24.570Z,2.50
2018-11-10T04:09:52.856Z,2.57
2018-11-10T04:12:21.146Z,2.53
2018-11-10T04:14:49.440Z,2.87
2018-11-10T04:17:17.748Z,2.83
2018-11-10T04:19:46.057Z,2.73
2018-11-10T04:22:14.346Z,2.57
2018-11-10T04:24:42.657Z,2.70
2018-11-10T04:27:10.946Z,2.80
2018-11-10T04:29:39.294Z,2.40
2018-11-10T04:32:07.577Z,2.67
2018-11-10T04:34:35.864Z,2.47
2018-11-10T04:37:04.166Z,2.60
2018-11-10T04:39:32.462Z,2.40
2018-11-10T04:42:00.751Z,2.70
2018-11-10T04:44:29.041Z,2.53
2018-11-10T04:46:57.346Z,2.50
2018-11-10T04:49:25.648Z,2.40
2018-11-10T04:51:53.954Z,2.77
2018-11-10T04:54:22.225Z,3.20
2018-11-10T04:56:50.612Z,3.00
2018-11-10T04:59:18.878Z,3.90
2018-11-10T05:01:47.159Z,4.30
2018-11-10T05:04:15.535Z,4.27
2018-11-10T05:06:43.814Z,5.00
2018-11-10T05:09:12.461Z,5.57
2018-11-10T05:11:40.927Z,6.63
2018-11-10T05:14:09.640Z,7.53
2018-11-10T05:16:37.954Z,8.57
2018-11-10T05:19:06.404Z,7.53
2018-11-10T05:21:34.730Z,8.00
2018-11-10T05:24:03.101Z,8.33
2018-11-10T05:26:31.397Z,8.50
2018-11-10T05:28:59.684Z,9.40
2018-11-10T05:31:27.993Z,9.17
2018-11-10T05:33:56.284Z,9.47
2018-11-10T05:36:24.614Z,8.43
2018-11-10T05:38:52.896Z,9.03
2018-11-10T05:41:21.196Z,9.00
2018-11-10T05:43:49.505Z,9.73
2018-11-10T05:46:17.801Z,10.10
2018-11-10T05:48:46.113Z,9.13
2018-11-10T05:51:14.408Z,9.53
2018-11-10T05:53:42.711Z,9.27
2018-11-10T05:56:11.661Z,9.57
2018-11-10T05:58:40.449Z,8.30
2018-11-10T06:01:09.264Z,8.53
2018-11-10T06:03:38.147Z,8.20
2018-11-10T06:06:06.843Z,8.87
2018-11-10T06:08:35.163Z,8.10
2018-11-10T06:11:03.481Z,8.80
2018-11-10T06:13:31.806Z,8.40
2018-11-10T06:16:00.188Z,8.53
2018-11-10T06:18:28.413Z,8.27
2018-11-10T06:20:57.246Z,7.77
2018-11-10T06:23:25.521Z,8.13
2018-11-10T06:25:53.878Z,7.30
2018-11-10T06:28:22.141Z,7.87
2018-11-10T06:30:50.443Z,7.87
2018-11-10T06:33:19.315Z,8.17
2018-11-10T06:35:47.604Z,8.10
2018-11-10T06:38:15.886Z,7.30
2018-11-10T06:40:44.168Z,7.40
2018-11-10T06:43:12.473Z,7.27
2018-11-10T06:45:40.752Z,6.60
2018-11-10T06:48:09.059Z,6.80
2018-11-10T06:50:37.380Z,6.63
2018-11-10T06:53:06.832Z,6.47
2018-11-10T06:55:35.151Z,6.70
2018-11-10T06:58:03.499Z,6.20
2018-11-10T07:00:31.835Z,6.63
2018-11-10T07:03:00.134Z,6.37
2018-11-10T07:05:28.423Z,6.53
2018-11-10T07:07:56.723Z,5.93
2018-11-10T07:10:24.986Z,6.83
2018-11-10T07:12:53.321Z,6.33
2018-11-10T07:15:21.611Z,5.83
2018-11-10T07:17:49.976Z,6.20
2018-11-10T07:20:18.233Z,5.30
2018-11-10T07:22:46.541Z,6.00
2018-11-10T07:25:14.857Z,6.10
2018-11-10T07:27:43.156Z,5.87
2018-11-10T07:30:13.133Z,5.67
2018-11-10T07:32:41.937Z,6.07
2018-11-10T07:35:11.254Z,5.73
2018-11-10T07:37:39.795Z,5.63
2018-11-10T07:40:09.884Z,5.20
2018-11-10T07:42:38.203Z,4.83
2018-11-10T07:45:07.961Z,5.33
2018-11-10T07:47:36.271Z,5.20
2018-11-10T07:50:05.696Z,5.00
2018-11-10T07:52:34.047Z,5.40
2018-11-10T07:55:02.423Z,5.37
2018-11-10T07:57:30.895Z,5.20
2018-11-10T07:59:59.263Z,5.10
2018-11-10T08:02:27.581Z,4.70
2018-11-10T08:04:55.961Z,4.60
2018-11-10T08:07:24.295Z,4.57
2018-11-10T08:09:52.593Z,4.87
2018-11-10T08:12:20.898Z,5.17
2018-11-10T08:14:49.248Z,4.13
2018-11-10T08:17:17.555Z,4.50
2018-11-10T08:19:45.867Z,4.53
2018-11-10T08:22:14.191Z,4.80
2018-11-10T08:24:42.557Z,4.23
2018-11-10T08:27:10.841Z,4.77
2018-11-10T08:29:39.172Z,4.63
2018-11-10T08:32:07.499Z,4.50
2018-11-10T08:34:35.789Z,4.70
2018-11-10T08:37:04.103Z,4.37
2018-11-10T08:39:32.389Z,4.10
2018-11-10T08:42:00.768Z,4.50
2018-11-10T08:44:29.221Z,4.17
2018-11-10T08:46:58.874Z,3.80
2018-11-10T08:49:27.270Z,4.30
2018-11-10T08:51:55.738Z,4.30
2018-11-10T08:54:25.043Z,3.97
2018-11-10T08:56:53.478Z,4.07
2018-11-10T08:59:21.814Z,3.40
2018-11-10T09:01:50.191Z,3.93
2018-11-10T09:04:18.473Z,4.00
2018-11-10T09:06:46.843Z,3.50
2018-11-10T09:09:15.123Z,3.37
2018-11-10T09:11:43.470Z,3.33
2018-11-10T09:14:11.933Z,3.77
2018-11-10T09:16:40.230Z,3.80
2018-11-10T09:19:08.630Z,3.40
2018-11-10T09:21:37.096Z,3.80
2018-11-10T09:24:05.675Z,3.87
2018-11-10T09:26:34.003Z,3.30
2018-11-10T09:29:02.367Z,3.20
2018-11-10T09:31:30.944Z,3.73
2018-11-10T09:33:59.351Z,3.53
2018-11-10T09:36:27.737Z,2.97
2018-11-10T09:38:55.997Z,3.10
2018-11-10T09:41:24.355Z,3.10
2018-11-10T09:43:52.665Z,3.17
2018-11-10T09:46:21.035Z,3.10
2018-11-10T09:48:49.390Z,3.30
2018-11-10T09:51:17.714Z,2.57
2018-11-10T09:53:46.050Z,2.53
2018-11-10T09:56:14.393Z,2.70
2018-11-10T09:58:42.714Z,2.40
2018-11-10T10:01:11.155Z,2.43
2018-11-10T10:03:39.649Z,2.00
2018-11-10T10:06:08.031Z,2.37
2018-11-10T10:08:36.432Z,2.00
2018-11-10T10:11:04.947Z,1.67
2018-11-10T10:13:33.507Z,1.97
2018-11-10T10:16:02.837Z,1.70
2018-11-10T10:18:31.214Z,1.90
2018-11-10T10:20:59.553Z,2.00
2018-11-10T10:23:27.882Z,1.87
2018-11-10T10:25:56.230Z,1.57
2018-11-10T10:28:24.601Z,1.80
2018-11-10T10:30:52.963Z,1.77
2018-11-10T10:33:21.333Z,1.90
2018-11-10T10:35:49.681Z,1.60
2018-11-10T10:38:18.939Z,1.60
2018-11-10T10:40:47.250Z,1.83
2018-11-10T10:43:15.576Z,1.73
2018-11-10T10:45:43.920Z,1.90
2018-11-10T10:48:12.259Z,1.63
2018-11-10T10:50:40.564Z,1.90
2018-11-10T10:53:09.203Z,1.80
2018-11-10T10:55:37.521Z,1.87
2018-11-10T10:58:06.859Z,1.93
2018-11-10T11:00:40.481Z,2.13
2018-11-10T11:03:14.335Z,2.10
2018-11-10T11:05:44.045Z,2.10
2018-11-10T11:08:12.398Z,1.87
2018-11-10T11:10:40.729Z,1.63
2018-11-10T11:13:09.641Z,1.80
2018-11-10T11:15:38.053Z,1.63
2018-11-10T11:18:06.286Z,1.93
2018-11-10T11:20:34.600Z,1.83
2018-11-10T11:23:02.925Z,1.80
2018-11-10T11:25:31.235Z,1.97
2018-11-10T11:27:59.557Z,1.80
2018-11-10T11:30:27.882Z,1.60
2018-11-10T11:32:56.195Z,1.80
2018-11-10T11:35:24.564Z,1.70
2018-11-10T11:37:52.861Z,1.40
2018-11-10T11:40:21.189Z,2.00
2018-11-10T11:42:49.509Z,1.87
2018-11-10T11:45:17.862Z,1.73
2018-11-10T11:47:46.198Z,1.70
2018-11-10T11:50:15.538Z,1.70
2018-11-10T11:52:44.331Z,1.60
2018-11-10T11:55:13.224Z,1.83
2018-11-10T11:57:41.940Z,1.57
2018-11-10T12:00:12.470Z,1.53
2018-11-10T12:02:41.501Z,1.57
2018-11-10T12:05:11.096Z,2.00
2018-11-10T12:07:39.428Z,1.73
2018-11-10T12:10:09.074Z,1.80
2018-11-10T12:12:37.394Z,1.67
2018-11-10T12:15:06.668Z,1.70
2018-11-10T12:17:35.110Z,1.70
2018-11-10T12:20:03.488Z,1.70
2018-11-10T12:22:31.804Z,1.80
2018-11-10T12:25:00.108Z,2.23
2018-11-10T12:27:28.516Z,2.07
2018-11-10T12:29:56.824Z,1.50
2018-11-10T12:32:25.158Z,1.80
2018-11-10T12:34:53.579Z,1.47
2018-11-10T12:37:21.951Z,1.60
2018-11-10T12:39:50.401Z,1.73
2018-11-10T12:42:18.748Z,1.67
2018-11-10T12:44:47.179Z,1.70
2018-11-10T12:47:15.864Z,1.60
2018-11-10T12:49:44.406Z,1.37
2018-11-10T12:52:12.776Z,1.60
2018-11-10T12:54:41.096Z,1.70
2018-11-10T12:57:09.424Z,1.60
2018-11-10T12:59:37.760Z,1.60
2018-11-10T13:02:06.073Z,1.67
2018-11-10T13:04:34.393Z,1.47
2018-11-10T13:07:02.758Z,1.60
2018-11-10T13:09:31.070Z,1.50
2018-11-10T13:11:59.497Z,1.60
2018-11-10T13:14:27.718Z,1.40
2018-11-10T13:16:56.042Z,1.30
2018-11-10T13:19:24.383Z,1.33
2018-11-10T13:21:52.715Z,1.40
2018-11-10T13:24:21.095Z,1.53
2018-11-10T13:26:49.385Z,1.20
2018-11-10T13:29:17.706Z,1.53
2018-11-10T13:31:46.157Z,1.40
2018-11-10T13:34:14.313Z,1.50
2018-11-10T13:36:42.624Z,1.33
2018-11-10T13:39:11.019Z,1.47
2018-11-10T13:41:39.718Z,1.17
2018-11-10T13:44:08.046Z,1.30
2018-11-10T13:46:36.358Z,1.50
2018-11-10T13:49:04.786Z,1.33
2018-11-10T13:51:33.366Z,1.20
2018-11-10T13:54:01.460Z,1.27
2018-11-10T13:56:30.734Z,1.40
2018-11-10T13:58:59.072Z,1.30
2018-11-10T14:01:27.577Z,1.20
2018-11-10T14:03:55.936Z,1.10
2018-11-10T14:06:24.266Z,1.27
2018-11-10T14:08:52.590Z,1.20
2018-11-10T14:11:20.948Z,1.30
2018-11-10T14:13:49.286Z,1.20
2018-11-10T14:16:17.598Z,1.20
2018-11-10T14:18:45.915Z,1.30
2018-11-10T14:21:14.258Z,1.20
2018-11-10T14:23:42.572Z,1.10
2018-11-10T14:26:10.934Z,1.30
2018-11-10T14:28:39.343Z,1.10
2018-11-10T14:31:07.668Z,1.40
2018-11-10T14:33:36.018Z,1.20
2018-11-10T14:36:04.329Z,1.20
2018-11-10T14:38:32.657Z,1.40
2018-11-10T14:41:01.093Z,1.33
2018-11-10T14:43:29.538Z,1.37
2018-11-10T14:45:57.885Z,1.10
2018-11-10T14:48:25.972Z,1.20
2018-11-10T14:50:54.296Z,1.10
2018-11-10T14:53:22.674Z,1.20
2018-11-10T14:55:50.987Z,1.03
2018-11-10T14:58:19.393Z,1.10
2018-11-10T15:00:47.831Z,1.30
2018-11-10T15:03:16.156Z,1.10
2018-11-10T15:05:45.021Z,1.00
2018-11-10T15:08:13.325Z,0.90
2018-11-10T15:10:41.664Z,0.83
2018-11-10T15:13:09.987Z,1.00
2018-11-10T15:15:38.284Z,1.10
2018-11-10T15:18:06.624Z,1.10
2018-11-10T15:20:34.960Z,1.10
2018-11-10T15:23:03.267Z,1.20
2018-11-10T15:25:31.620Z,1.07
2018-11-10T15:27:59.926Z,1.17
2018-11-10T15:30:28.261Z,0.90
2018-11-10T15:32:56.579Z,0.97
2018-11-10T15:35:24.918Z,1.00
2018-11-10T15:37:54.371Z,1.20
2018-11-10T15:40:23.230Z,1.13
2018-11-10T15:42:52.198Z,1.10
2018-11-10T15:45:21.306Z,1.10
2018-11-10T15:47:49.650Z,0.90
2018-11-10T15:50:18.692Z,0.90
2018-11-10T15:52:47.002Z,1.00
2018-11-10T15:55:15.334Z,1.10
2018-11-10T15:57:43.948Z,1.10
2018-11-10T16:00:14.772Z,1.00
2018-11-10T16:02:43.252Z,1.00
2018-11-10T16:05:12.367Z,0.90
2018-11-10T16:07:40.683Z,1.00
2018-11-10T16:10:09.072Z,1.23
2018-11-10T16:12:37.630Z,1.00
2018-11-10T16:15:07.950Z,1.10
2018-11-10T16:17:36.266Z,0.90
2018-11-10T16:20:05.530Z,1.00
2018-11-10T16:22:33.844Z,1.20
2018-11-10T16:25:02.149Z,0.90
2018-11-10T16:27:30.470Z,1.00
2018-11-10T16:29:58.892Z,1.00
2018-11-10T16:32:27.218Z,0.97
2018-11-10T16:34:55.564Z,0.80
2018-11-10T16:37:23.987Z,1.10
2018-11-10T16:39:52.200Z,1.03
2018-11-10T16:42:20.839Z,1.00
2018-11-10T16:44:49.418Z,0.97
2018-11-10T16:47:17.638Z,1.00
2018-11-10T16:49:45.970Z,1.07
2018-11-10T16:52:14.326Z,1.00
2018-11-10T16:54:42.644Z,1.10
2018-11-10T16:57:11.007Z,1.10
2018-11-10T16:59:39.361Z,0.90
2018-11-10T17:02:07.669Z,0.90
2018-11-10T17:04:36.004Z,0.90
2018-11-10T17:07:04.304Z,1.00
2018-11-10T17:09:32.621Z,1.10
2018-11-10T17:12:00.970Z,0.87
2018-11-10T17:14:29.323Z,1.00
2018-11-10T17:16:57.656Z,1.10
2018-11-10T17:19:25.962Z,0.90
2018-11-10T17:21:54.427Z,0.90
2018-11-10T17:24:22.711Z,1.00
2018-11-10T17:26:51.013Z,0.90
2018-11-10T17:29:19.387Z,1.07
2018-11-10T17:31:47.694Z,1.00
2018-11-10T17:34:16.047Z,0.90
2018-11-10T17:36:44.376Z,0.90
2018-11-10T17:39:12.701Z,0.83
2018-11-10T17:41:41.022Z,0.90
2018-11-10T17:44:10.282Z,0.90
2018-11-10T17:46:38.612Z,0.97
2018-11-10T17:49:06.963Z,1.00
2018-11-10T17:51:35.317Z,0.97
2018-11-10T17:54:03.626Z,0.97
2018-11-10T17:56:32.280Z,1.00
2018-11-10T17:59:01.188Z,0.80
2018-11-10T18:01:29.599Z,0.90
2018-11-10T18:03:57.994Z,1.00
2018-11-10T18:06:26.237Z,0.80
2018-11-10T18:08:55.488Z,0.90
2018-11-10T18:11:23.826Z,0.90
2018-11-10T18:13:52.155Z,1.00
2018-11-10T18:16:20.512Z,0.80
2018-11-10T18:18:48.910Z,0.90
2018-11-10T18:21:17.251Z,0.83
2018-11-10T18:23:45.644Z,0.80
2018-11-10T18:26:14.029Z,0.83
2018-11-10T18:28:42.407Z,0.90
2018-11-10T18:31:11.413Z,0.83
2018-11-10T18:33:39.743Z,0.90
2018-11-10T18:36:08.108Z,1.07
2018-11-10T18:38:36.454Z,0.70
2018-11-10T18:41:05.086Z,1.00
2018-11-10T18:43:33.453Z,0.90
2018-11-10T18:46:01.951Z,0.90
2018-11-10T18:48:30.309Z,0.83
2018-11-10T18:50:59.611Z,1.00
2018-11-10T18:53:27.949Z,0.83
2018-11-10T18:55:56.335Z,0.90
2018-11-10T18:58:24.774Z,1.00
2018-11-10T19:00:53.185Z,1.07
2018-11-10T19:03:21.694Z,1.00
2018-11-10T19:05:50.089Z,0.90
2018-11-10T19:08:18.537Z,1.00
2018-11-10T19:10:47.015Z,1.00
2018-11-10T19:13:15.472Z,1.00
2018-11-10T19:15:43.937Z,0.90
2018-11-10T19:18:12.448Z,0.93
2018-11-10T19:20:40.899Z,0.70
2018-11-10T19:23:09.417Z,0.90
2018-11-10T19:25:37.755Z,0.90
2018-11-10T19:28:06.529Z,0.90
2018-11-10T19:30:35.002Z,0.90
2018-11-10T19:33:04.587Z,0.90
2018-11-10T19:35:33.688Z,0.90
2018-11-10T19:38:02.137Z,1.00
2018-11-10T19:40:30.604Z,1.00
2018-11-10T19:42:59.109Z,0.90
2018-11-10T19:45:27.618Z,0.90
2018-11-10T19:47:56.089Z,1.00
2018-11-10T19:50:24.628Z,0.90
2018-11-10T19:52:52.929Z,0.90
2018-11-10T19:55:21.398Z,0.90
2018-11-10T19:57:49.894Z,0.90
2018-11-10T20:00:20.874Z,1.00
2018-11-10T20:02:49.401Z,0.90
2018-11-10T20:05:18.062Z,1.00
2018-11-10T20:07:46.609Z,1.00
2018-11-10T20:10:15.375Z,0.93
2018-11-10T20:12:44.540Z,0.80
2018-11-10T20:15:14.420Z,0.83
2018-11-10T20:17:43.309Z,1.03
2018-11-10T20:20:13.017Z,1.00
2018-11-10T20:22:42.075Z,1.10
2018-11-10T20:25:12.163Z,1.00
2018-11-10T20:27:40.957Z,1.00
2018-11-10T20:30:12.906Z,0.90
2018-11-10T20:32:41.363Z,1.00
2018-11-10T20:35:11.310Z,0.67
2018-11-10T20:37:40.572Z,1.00
2018-11-10T20:40:10.505Z,1.00
2018-11-10T20:42:39.261Z,1.00
2018-11-10T20:45:10.132Z,1.00
2018-11-10T20:47:39.068Z,1.00
2018-11-10T20:50:07.550Z,0.97
2018-11-10T20:52:36.990Z,1.00
2018-11-10T20:55:07.339Z,1.17
2018-11-10T20:57:36.407Z,1.10
2018-11-10T21:00:06.445Z,1.00
2018-11-10T21:02:35.460Z,0.90
2018-11-10T21:05:04.000Z,1.00
2018-11-10T21:07:32.424Z,1.00
2018-11-10T21:10:00.844Z,0.80
2018-11-10T21:12:29.243Z,1.00
2018-11-10T21:14:57.672Z,0.90
2018-11-10T21:17:26.092Z,1.00
2018-11-10T21:19:54.550Z,0.93
2018-11-10T21:22:22.987Z,0.90
2018-11-10T21:24:51.443Z,1.00
2018-11-10T21:27:20.064Z,1.10
2018-11-10T21:29:48.586Z,0.80
2018-11-10T21:32:17.117Z,0.90
2018-11-10T21:34:45.521Z,0.87
2018-11-10T21:37:14.596Z,0.90
2018-11-10T21:39:43.380Z,0.97
2018-11-10T21:42:11.902Z,1.00
2018-11-10T21:44:40.300Z,0.93
2018-11-10T21:47:10.099Z,0.90
2018-11-10T21:49:39.601Z,0.90
2018-11-10T21:52:07.768Z,1.00
2018-11-10T21:54:36.129Z,0.90
2018-11-10T21:57:04.521Z,1.00
2018-11-10T21:59:32.934Z,0.90
2018-11-10T22:02:01.386Z,1.00
2018-11-10T22:04:29.857Z,0.73
2018-11-10T22:06:58.243Z,0.97
2018-11-10T22:09:26.776Z,0.80
2018-11-10T22:11:55.029Z,1.00
2018-11-10T22:14:23.448Z,0.70
2018-11-10T22:16:51.818Z,0.80
2018-11-10T22:19:20.194Z,0.83
2018-11-10T22:21:48.563Z,0.80
2018-11-10T22:24:16.950Z,0.90
2018-11-10T22:26:45.306Z,1.00
2018-11-10T22:29:13.663Z,1.03
2018-11-10T22:31:42.008Z,0.90
2018-11-10T22:34:10.337Z,0.70
2018-11-10T22:36:38.677Z,0.90
2018-11-10T22:39:08.363Z,0.80
2018-11-10T22:41:36.651Z,0.80
2018-11-10T22:44:04.951Z,0.80
2018-11-10T22:46:33.288Z,0.90
2018-11-10T22:49:01.610Z,0.90
2018-11-10T22:51:29.945Z,0.90
2018-11-10T22:53:58.773Z,0.67
2018-11-10T22:56:27.115Z,0.80
2018-11-10T22:58:55.433Z,0.77
2018-11-10T23:01:27.986Z,0.80
2018-11-10T23:03:56.306Z,0.70
2018-11-10T23:06:25.582Z,0.90
2018-11-10T23:08:54.036Z,0.90
2018-11-10T23:11:22.349Z,0.90
2018-11-10T23:13:50.678Z,0.80
2018-11-10T23:16:19.073Z,0.90
2018-11-10T23:18:47.523Z,0.80
2018-11-10T23:21:15.817Z,0.90
2018-11-10T23:23:44.136Z,0.90
2018-11-10T23:26:12.472Z,0.90
2018-11-10T23:28:40.784Z,0.90
2018-11-10T23:31:09.091Z,1.00
2018-11-10T23:33:37.436Z,0.80
2018-11-10T23:36:05.711Z,0.97
2018-11-10T23:38:34.085Z,0.90
2018-11-10T23:41:02.378Z,0.70
2018-11-10T23:43:30.709Z,0.70
2018-11-10T23:45:58.971Z,0.77
2018-11-10T23:48:27.271Z,0.90
2018-11-10T23:50:55.557Z,0.70
2018-11-10T23:53:23.869Z,0.80
2018-11-10T23:55:52.185Z,0.70
2018-11-10T23:58:20.481Z,0.70
